sensor_id;sensor_type;location;lat;lon;timestamp;pressure;altitude;pressure_sealevel;temperature;humidity
72925;BME280;61070;50.794;7.054;2023-02-21T00:00:50;101342.41;;;7.05;100.00
72925;BME280;61070;50.794;7.054;2023-02-21T00:03:34;101337.16;;;7.06;100.00
72925;BME280;61070;50.794;7.054;2023-02-21T00:06:18;101335.31;;;7.02;100.00
72925;BME280;61070;50.794;7.054;2023-02-21T00:09:01;101331.78;;;7.00;100.00
72925;BME280;61070;50.794;7.054;2023-02-21T00:11:45;101337.91;;;6.97;100.00
72925;BME280;61070;50.794;7.054;2023-02-21T00:14:29;101331.75;;;6.97;100.00
72925;BME280;61070;50.794;7.054;2023-02-21T00:17:13;101327.38;;;6.97;100.00
72925;BME280;61070;50.794;7.054;2023-02-21T00:19:57;101338.75;;;6.93;100.00
72925;BME280;61070;50.794;7.054;2023-02-21T00:22:41;101335.16;;;6.90;100.00
72925;BME280;61070;50.794;7.054;2023-02-21T00:25:25;101334.22;;;6.85;100.00
72925;BME280;61070;50.794;7.054;2023-02-21T00:28:09;101330.63;;;6.78;100.00
72925;BME280;61070;50.794;7.054;2023-02-21T00:30:53;101341.88;;;6.68;100.00
72925;BME280;61070;50.794;7.054;2023-02-21T00:33:37;101341.84;;;6.65;100.00
72925;BME280;61070;50.794;7.054;2023-02-21T00:36:21;101338.28;;;6.60;100.00
72925;BME280;61070;50.794;7.054;2023-02-21T00:39:04;101345.22;;;6.56;100.00
72925;BME280;61070;50.794;7.054;2023-02-21T00:41:48;101346.09;;;6.57;100.00
72925;BME280;61070;50.794;7.054;2023-02-21T00:44:32;101349.59;;;6.56;100.00
72925;BME280;61070;50.794;7.054;2023-02-21T00:47:16;101343.44;;;6.55;100.00
72925;BME280;61070;50.794;7.054;2023-02-21T00:50:00;101352.31;;;6.60;100.00
72925;BME280;61070;50.794;7.054;2023-02-21T00:52:44;101348.94;;;6.69;100.00
72925;BME280;61070;50.794;7.054;2023-02-21T00:55:28;101348.09;;;6.70;100.00
72925;BME280;61070;50.794;7.054;2023-02-21T00:58:12;101347.28;;;6.77;100.00
72925;BME280;61070;50.794;7.054;2023-02-21T01:00:56;101347.41;;;6.85;100.00
72925;BME280;61070;50.794;7.054;2023-02-21T01:03:40;101345.66;;;6.87;100.00
72925;BME280;61070;50.794;7.054;2023-02-21T01:06:24;101352.78;;;6.92;100.00
72925;BME280;61070;50.794;7.054;2023-02-21T01:09:08;101347.56;;;6.98;100.00
72925;BME280;61070;50.794;7.054;2023-02-21T01:11:52;101335.31;;;7.00;100.00
72925;BME280;61070;50.794;7.054;2023-02-21T01:14:36;101336.25;;;7.04;100.00
72925;BME280;61070;50.794;7.054;2023-02-21T01:17:20;101338.91;;;7.07;100.00
72925;BME280;61070;50.794;7.054;2023-02-21T01:20:04;101337.19;;;7.11;100.00
72925;BME280;61070;50.794;7.054;2023-02-21T01:22:48;101329.31;;;7.12;100.00
72925;BME280;61070;50.794;7.054;2023-02-21T01:25:32;101326.66;;;7.11;100.00
72925;BME280;61070;50.794;7.054;2023-02-21T01:28:16;101332.78;;;7.10;100.00
72925;BME280;61070;50.794;7.054;2023-02-21T01:31:00;101331.03;;;7.10;100.00
72925;BME280;61070;50.794;7.054;2023-02-21T01:33:44;101336.31;;;7.12;100.00
72925;BME280;61070;50.794;7.054;2023-02-21T01:36:28;101337.31;;;7.18;100.00
72925;BME280;61070;50.794;7.054;2023-02-21T01:39:12;101337.31;;;7.18;100.00
72925;BME280;61070;50.794;7.054;2023-02-21T01:41:56;101329.41;;;7.20;100.00
72925;BME280;61070;50.794;7.054;2023-02-21T01:44:42;101329.44;;;7.23;100.00
72925;BME280;61070;50.794;7.054;2023-02-21T01:47:27;101321.53;;;7.21;100.00
72925;BME280;61070;50.794;7.054;2023-02-21T01:50:16;101323.16;;;7.12;100.00
72925;BME280;61070;50.794;7.054;2023-02-21T01:53:06;101332.03;;;7.18;100.00
72925;BME280;61070;50.794;7.054;2023-02-21T01:55:51;101321.47;;;7.15;100.00
72925;BME280;61070;50.794;7.054;2023-02-21T01:58:36;101321.50;;;7.18;100.00
72925;BME280;61070;50.794;7.054;2023-02-21T02:01:47;101318.00;;;7.21;100.00
72925;BME280;61070;50.794;7.054;2023-02-21T02:04:32;101318.03;;;7.24;100.00
72925;BME280;61070;50.794;7.054;2023-02-21T02:07:17;101316.25;;;7.21;100.00
72925;BME280;61070;50.794;7.054;2023-02-21T02:10:01;101318.78;;;7.12;100.00
72925;BME280;61070;50.794;7.054;2023-02-21T02:15:59;101323.13;;;7.10;100.00
72925;BME280;61070;50.794;7.054;2023-02-21T02:18:44;101320.59;;;7.16;100.00
72925;BME280;61070;50.794;7.054;2023-02-21T02:21:39;101313.59;;;7.18;100.00
72925;BME280;61070;50.794;7.054;2023-02-21T02:24:33;101325.03;;;7.20;100.00
72925;BME280;61070;50.794;7.054;2023-02-21T02:27:24;101325.03;;;7.20;100.00
72925;BME280;61070;50.794;7.054;2023-02-21T02:35:08;101310.19;;;7.28;100.00
72925;BME280;61070;50.794;7.054;2023-02-21T02:37:52;101305.81;;;7.30;100.00
72925;BME280;61070;50.794;7.054;2023-02-21T02:40:45;101305.84;;;7.35;100.00
72925;BME280;61070;50.794;7.054;2023-02-21T02:43:24;101301.53;;;7.39;100.00
72925;BME280;61070;50.794;7.054;2023-02-21T02:45:57;101297.16;;;7.41;100.00
72925;BME280;61070;50.794;7.054;2023-02-21T02:48:33;101292.78;;;7.46;100.00
72925;BME280;61070;50.794;7.054;2023-02-21T02:51:02;101287.53;;;7.47;100.00
72925;BME280;61070;50.794;7.054;2023-02-21T02:53:29;101293.72;;;7.49;100.00
72925;BME280;61070;50.794;7.054;2023-02-21T02:58:24;101295.50;;;7.49;100.00
72925;BME280;61070;50.794;7.054;2023-02-21T03:03:45;101292.91;;;7.55;100.00
72925;BME280;61070;50.794;7.054;2023-02-21T03:12:43;101281.47;;;7.56;100.00
72925;BME280;61070;50.794;7.054;2023-02-21T03:14:46;101282.38;;;7.56;100.00
72925;BME280;61070;50.794;7.054;2023-02-21T03:17:15;101282.34;;;7.53;100.00
72925;BME280;61070;50.794;7.054;2023-02-21T03:19:45;101286.75;;;7.56;100.00
72925;BME280;61070;50.794;7.054;2023-02-21T03:22:17;101293.75;;;7.52;100.00
72925;BME280;61070;50.794;7.054;2023-02-21T03:24:45;101290.25;;;7.52;100.00
72925;BME280;61070;50.794;7.054;2023-02-21T03:27:12;101287.53;;;7.46;100.00
72925;BME280;61070;50.794;7.054;2023-02-21T03:29:39;101286.59;;;7.39;100.00
72925;BME280;61070;50.794;7.054;2023-02-21T03:32:09;101290.13;;;7.40;100.00
72925;BME280;61070;50.794;7.054;2023-02-21T03:34:40;101292.75;;;7.38;100.00
72925;BME280;61070;50.794;7.054;2023-02-21T03:37:08;101289.16;;;7.35;100.00
72925;BME280;61070;50.794;7.054;2023-02-21T03:39:34;101288.34;;;7.39;100.00
72925;BME280;61070;50.794;7.054;2023-02-21T03:41:59;101285.72;;;7.40;100.00
72925;BME280;61070;50.794;7.054;2023-02-21T03:44:25;101283.13;;;7.43;100.00
72925;BME280;61070;50.794;7.054;2023-02-21T03:46:50;101292.00;;;7.54;100.00
72925;BME280;61070;50.794;7.054;2023-02-21T03:49:15;101289.38;;;7.54;100.00
72925;BME280;61070;50.794;7.054;2023-02-21T03:51:41;101285.00;;;7.55;100.00
72925;BME280;61070;50.794;7.054;2023-02-21T03:54:06;101278.81;;;7.53;100.00
72925;BME280;61070;50.794;7.054;2023-02-21T03:56:31;101284.97;;;7.52;100.00
72925;BME280;61070;50.794;7.054;2023-02-21T03:58:56;101277.97;;;7.55;100.00
72925;BME280;61070;50.794;7.054;2023-02-21T04:01:22;101273.56;;;7.56;100.00
72925;BME280;61070;50.794;7.054;2023-02-21T04:03:47;101270.94;;;7.56;100.00
72925;BME280;61070;50.794;7.054;2023-02-21T04:06:12;101271.88;;;7.61;100.00
72925;BME280;61070;50.794;7.054;2023-02-21T04:08:38;101267.50;;;7.63;100.00
72925;BME280;61070;50.794;7.054;2023-02-21T04:11:03;101269.28;;;7.66;100.00
72925;BME280;61070;50.794;7.054;2023-02-21T04:13:28;101264.00;;;7.64;100.00
72925;BME280;61070;50.794;7.054;2023-02-21T04:15:53;101271.03;;;7.65;100.00
72925;BME280;61070;50.794;7.054;2023-02-21T04:18:19;101266.63;;;7.64;100.00
72925;BME280;61070;50.794;7.054;2023-02-21T04:20:44;101268.38;;;7.64;100.00
72925;BME280;61070;50.794;7.054;2023-02-21T04:23:13;101262.25;;;7.66;100.00
72925;BME280;61070;50.794;7.054;2023-02-21T04:25:39;101264.00;;;7.67;100.00
72925;BME280;61070;50.794;7.054;2023-02-21T04:28:05;101264.88;;;7.68;100.00
72925;BME280;61070;50.794;7.054;2023-02-21T04:30:30;101265.81;;;7.71;100.00
72925;BME280;61070;50.794;7.054;2023-02-21T04:32:55;101259.66;;;7.71;100.00
72925;BME280;61070;50.794;7.054;2023-02-21T04:35:21;101264.06;;;7.73;100.00
72925;BME280;61070;50.794;7.054;2023-02-21T04:37:46;101267.53;;;7.69;100.00
72925;BME280;61070;50.794;7.054;2023-02-21T04:40:12;101276.31;;;7.68;100.00
72925;BME280;61070;50.794;7.054;2023-02-21T04:42:37;101271.03;;;7.65;100.00
72925;BME280;61070;50.794;7.054;2023-02-21T04:45:03;101268.41;;;7.68;100.00
72925;BME280;61070;50.794;7.054;2023-02-21T04:47:28;101266.63;;;7.64;100.00
72925;BME280;61070;50.794;7.054;2023-02-21T04:49:53;101267.50;;;7.66;100.00
72925;BME280;61070;50.794;7.054;2023-02-21T04:52:19;101261.34;;;7.63;100.00
72925;BME280;61070;50.794;7.054;2023-02-21T04:54:45;101263.97;;;7.63;100.00
72925;BME280;61070;50.794;7.054;2023-02-21T04:57:11;101260.47;;;7.64;100.00
72925;BME280;61070;50.794;7.054;2023-02-21T04:59:36;101263.13;;;7.65;100.00
72925;BME280;61070;50.794;7.054;2023-02-21T05:02:02;101264.06;;;7.70;100.00
72925;BME280;61070;50.794;7.054;2023-02-21T05:04:27;101264.06;;;7.70;100.00
72925;BME280;61070;50.794;7.054;2023-02-21T05:06:52;101257.88;;;7.70;100.00
72925;BME280;61070;50.794;7.054;2023-02-21T05:09:17;101264.94;;;7.72;100.00
72925;BME280;61070;50.794;7.054;2023-02-21T05:11:43;101270.25;;;7.75;100.00
72925;BME280;61070;50.794;7.054;2023-02-21T05:14:08;101266.72;;;7.76;100.00
72925;BME280;61070;50.794;7.054;2023-02-21T05:16:33;101263.22;;;7.74;100.00
72925;BME280;61070;50.794;7.054;2023-02-21T05:18:59;101257.94;;;7.76;100.00
72925;BME280;61070;50.794;7.054;2023-02-21T05:21:26;101254.44;;;7.77;100.00
72925;BME280;61070;50.794;7.054;2023-02-21T05:23:51;101253.53;;;7.73;100.00
72925;BME280;61070;50.794;7.054;2023-02-21T05:26:22;101250.81;;;7.67;100.00
72925;BME280;61070;50.794;7.054;2023-02-21T05:28:48;101252.53;;;7.59;100.00
72925;BME280;61070;50.794;7.054;2023-02-21T05:31:14;101249.81;;;7.50;100.00
72925;BME280;61070;50.794;7.054;2023-02-21T05:33:39;101252.38;;;7.44;100.00
72925;BME280;61070;50.794;7.054;2023-02-21T05:36:04;101251.47;;;7.39;100.00
72925;BME280;61070;50.794;7.054;2023-02-21T05:38:30;101257.59;;;7.38;100.00
72925;BME280;61070;50.794;7.054;2023-02-21T05:40:56;101262.88;;;7.39;100.00
72925;BME280;61070;50.794;7.054;2023-02-21T05:43:22;101259.38;;;7.40;100.00
72925;BME280;61070;50.794;7.054;2023-02-21T05:45:48;101262.03;;;7.42;100.00
72925;BME280;61070;50.794;7.054;2023-02-21T05:48:14;101264.75;;;7.52;100.00
72925;BME280;61070;50.794;7.054;2023-02-21T05:50:39;101253.25;;;7.46;100.00
72925;BME280;61070;50.794;7.054;2023-02-21T05:53:05;101251.59;;;7.54;100.00
72925;BME280;61070;50.794;7.054;2023-02-21T05:55:31;101257.75;;;7.56;100.00
72925;BME280;61070;50.794;7.054;2023-02-21T05:57:56;101254.25;;;7.57;100.00
72925;BME280;61070;50.794;7.054;2023-02-21T06:00:25;101259.50;;;7.55;100.00
72925;BME280;61070;50.794;7.054;2023-02-21T06:02:52;101258.63;;;7.56;100.00
72925;BME280;61070;50.794;7.054;2023-02-21T06:05:18;101250.72;;;7.55;100.00
72925;BME280;61070;50.794;7.054;2023-02-21T06:07:45;101256.88;;;7.54;100.00
72925;BME280;61070;50.794;7.054;2023-02-21T06:10:11;101249.91;;;7.59;100.00
72925;BME280;61070;50.794;7.054;2023-02-21T06:12:37;101255.28;;;7.73;100.00
72925;BME280;61070;50.794;7.054;2023-02-21T06:15:02;101253.41;;;7.59;100.00
72925;BME280;61070;50.794;7.054;2023-02-21T06:17:31;101258.72;;;7.64;100.00
72925;BME280;61070;50.794;7.054;2023-02-21T06:19:57;101261.25;;;7.53;100.00
72925;BME280;61070;50.794;7.054;2023-02-21T06:22:22;101262.13;;;7.51;100.00
72925;BME280;61070;50.794;7.054;2023-02-21T06:24:47;101270.03;;;7.51;100.00
72925;BME280;61070;50.794;7.054;2023-02-21T06:27:13;101263.81;;;7.46;100.00
72925;BME280;61070;50.794;7.054;2023-02-21T06:29:39;101264.69;;;7.46;100.00
72925;BME280;61070;50.794;7.054;2023-02-21T06:32:04;101259.41;;;7.45;100.00
72925;BME280;61070;50.794;7.054;2023-02-21T06:34:30;101260.28;;;7.44;100.00
72925;BME280;61070;50.794;7.054;2023-02-21T06:36:55;101259.41;;;7.45;100.00
72925;BME280;61070;50.794;7.054;2023-02-21T06:39:22;101263.75;;;7.40;100.00
72925;BME280;61070;50.794;7.054;2023-02-21T06:41:48;101268.16;;;7.42;100.00
72925;BME280;61070;50.794;7.054;2023-02-21T06:44:14;101262.03;;;7.42;100.00
72925;BME280;61070;50.794;7.054;2023-02-21T06:46:41;101260.25;;;7.41;100.00
72925;BME280;61070;50.794;7.054;2023-02-21T06:49:08;101264.56;;;7.36;100.00
72925;BME280;61070;50.794;7.054;2023-02-21T06:51:38;101265.44;;;7.33;100.00
72925;BME280;61070;50.794;7.054;2023-02-21T06:54:04;101262.84;;;7.36;100.00
72925;BME280;61070;50.794;7.054;2023-02-21T06:56:29;101261.06;;;7.35;100.00
72925;BME280;61070;50.794;7.054;2023-02-21T06:58:55;101276.03;;;7.36;100.00
72925;BME280;61070;50.794;7.054;2023-02-21T07:01:21;101271.66;;;7.38;100.00
72925;BME280;61070;50.794;7.054;2023-02-21T07:03:48;101262.88;;;7.41;100.00
72925;BME280;61070;50.794;7.054;2023-02-21T07:06:13;101268.06;;;7.33;100.00
72925;BME280;61070;50.794;7.054;2023-02-21T07:08:39;101270.72;;;7.35;100.00
72925;BME280;61070;50.794;7.054;2023-02-21T07:11:04;101269.84;;;7.36;100.00
72925;BME280;61070;50.794;7.054;2023-02-21T07:13:31;101275.16;;;7.39;100.00
72925;BME280;61070;50.794;7.054;2023-02-21T07:15:56;101269.94;;;7.43;100.00
72925;BME280;61070;50.794;7.054;2023-02-21T07:18:21;101275.22;;;7.45;100.00
72925;BME280;61070;50.794;7.054;2023-02-21T07:20:47;101270.84;;;7.47;100.00
72925;BME280;61070;50.794;7.054;2023-02-21T07:23:13;101265.66;;;7.53;100.00
72925;BME280;61070;50.794;7.054;2023-02-21T07:25:39;101271.78;;;7.53;99.93
72925;BME280;61070;50.794;7.054;2023-02-21T07:28:04;101280.59;;;7.54;100.00
72925;BME280;61070;50.794;7.054;2023-02-21T07:30:29;101282.34;;;7.55;99.40
72925;BME280;61070;50.794;7.054;2023-02-21T07:32:56;101275.53;;;7.80;98.61
72925;BME280;61070;50.794;7.054;2023-02-21T07:35:21;101268.41;;;7.68;98.49
72925;BME280;61070;50.794;7.054;2023-02-21T07:37:46;101273.72;;;7.71;98.75
72925;BME280;61070;50.794;7.054;2023-02-21T07:40:11;101271.13;;;7.74;98.73
72925;BME280;61070;50.794;7.054;2023-02-21T07:42:40;101277.25;;;7.73;98.78
72925;BME280;61070;50.794;7.054;2023-02-21T07:45:07;101274.66;;;7.78;98.39
72925;BME280;61070;50.794;7.054;2023-02-21T07:47:33;101280.88;;;7.86;98.14
72925;BME280;61070;50.794;7.054;2023-02-21T07:49:58;101279.16;;;7.89;97.68
72925;BME280;61070;50.794;7.054;2023-02-21T07:52:23;101279.13;;;7.86;97.43
72925;BME280;61070;50.794;7.054;2023-02-21T07:54:48;101269.47;;;7.88;97.44
72925;BME280;61070;50.794;7.054;2023-02-21T07:57:15;101277.41;;;7.92;97.65
72925;BME280;61070;50.794;7.054;2023-02-21T07:59:41;101275.63;;;7.87;98.18
72925;BME280;61070;50.794;7.054;2023-02-21T08:02:06;101275.63;;;7.87;98.15
72925;BME280;61070;50.794;7.054;2023-02-21T08:04:31;101270.34;;;7.91;98.23
72925;BME280;61070;50.794;7.054;2023-02-21T08:07:01;101277.38;;;7.88;97.98
72925;BME280;61070;50.794;7.054;2023-02-21T08:09:26;101277.38;;;7.88;98.27
72925;BME280;61070;50.794;7.054;2023-02-21T08:11:52;101280.03;;;7.90;97.99
72925;BME280;61070;50.794;7.054;2023-02-21T08:14:17;101280.97;;;7.94;98.73
72925;BME280;61070;50.794;7.054;2023-02-21T08:16:43;101278.34;;;7.97;98.32
72925;BME280;61070;50.794;7.054;2023-02-21T08:19:08;101277.47;;;7.96;98.23
72925;BME280;61070;50.794;7.054;2023-02-21T08:21:34;101273.97;;;8.02;97.87
72925;BME280;61070;50.794;7.054;2023-02-21T08:23:59;101280.19;;;8.11;97.37
72925;BME280;61070;50.794;7.054;2023-02-21T08:26:24;101270.53;;;8.10;98.19
72925;BME280;61070;50.794;7.054;2023-02-21T08:28:50;101270.50;;;8.09;97.76
72925;BME280;61070;50.794;7.054;2023-02-21T08:31:15;101273.16;;;8.10;97.84
72925;BME280;61070;50.794;7.054;2023-02-21T08:33:40;101275.00;;;8.19;97.85
72925;BME280;61070;50.794;7.054;2023-02-21T08:36:06;101277.63;;;8.19;97.36
72925;BME280;61070;50.794;7.054;2023-02-21T08:38:31;101277.66;;;8.22;97.47
72925;BME280;61070;50.794;7.054;2023-02-21T08:40:56;101267.09;;;8.25;97.36
72925;BME280;61070;50.794;7.054;2023-02-21T08:43:23;101281.25;;;8.33;97.02
72925;BME280;61070;50.794;7.054;2023-02-21T08:45:48;101278.63;;;8.35;96.94
72925;BME280;61070;50.794;7.054;2023-02-21T08:48:14;101276.03;;;8.39;96.62
72925;BME280;61070;50.794;7.054;2023-02-21T08:50:39;101276.94;;;8.44;96.41
72925;BME280;61070;50.794;7.054;2023-02-21T08:53:04;101282.28;;;8.57;95.73
72925;BME280;61070;50.794;7.054;2023-02-21T08:55:29;101267.38;;;8.68;95.18
72925;BME280;61070;50.794;7.054;2023-02-21T08:57:55;101271.84;;;8.81;94.53
72925;BME280;61070;50.794;7.054;2023-02-21T09:00:22;101259.59;;;9.04;92.63
72925;BME280;61070;50.794;7.054;2023-02-21T09:02:49;101256.94;;;8.92;93.51
72925;BME280;61070;50.794;7.054;2023-02-21T09:05:20;101252.56;;;8.97;93.99
72925;BME280;61070;50.794;7.054;2023-02-21T09:07:49;101242.03;;;9.07;93.99
72925;BME280;61070;50.794;7.054;2023-02-21T09:10:15;101252.56;;;9.02;93.67
72925;BME280;61070;50.794;7.054;2023-02-21T09:12:41;101252.66;;;9.31;92.86
72925;BME280;61070;50.794;7.054;2023-02-21T09:15:06;101246.47;;;9.37;92.60
72925;BME280;61070;50.794;7.054;2023-02-21T09:17:32;101244.72;;;9.39;92.67
72925;BME280;61070;50.794;7.054;2023-02-21T09:20:08;101239.47;;;9.52;92.24
72925;BME280;61070;50.794;7.054;2023-02-21T09:22:34;101235.94;;;9.58;91.30
72925;BME280;61070;50.794;7.054;2023-02-21T09:25:00;101243.00;;;9.56;92.84
72925;BME280;61070;50.794;7.054;2023-02-21T09:27:26;101250.03;;;9.60;92.92
72925;BME280;61070;50.794;7.054;2023-02-21T09:30:15;101240.34;;;9.67;91.85
72925;BME280;61070;50.794;7.054;2023-02-21T09:32:41;101237.69;;;9.62;93.30
72925;BME280;61070;50.794;7.054;2023-02-21T09:35:07;101242.97;;;9.60;92.17
72925;BME280;61070;50.794;7.054;2023-02-21T09:37:36;101232.41;;;9.42;92.46
72925;BME280;61070;50.794;7.054;2023-02-21T09:40:02;101241.22;;;9.58;92.06
72925;BME280;61070;50.794;7.054;2023-02-21T09:42:30;101234.19;;;9.65;91.68
72925;BME280;61070;50.794;7.054;2023-02-21T09:44:55;101235.94;;;9.70;92.23
72925;BME280;61070;50.794;7.054;2023-02-21T09:47:27;101242.13;;;9.80;91.71
72925;BME280;61070;50.794;7.054;2023-02-21T09:50:00;101232.41;;;9.73;90.74
72925;BME280;61070;50.794;7.054;2023-02-21T09:52:34;101234.19;;;9.68;91.11
72925;BME280;61070;50.794;7.054;2023-02-21T09:55:13;101243.00;;;9.82;90.79
72925;BME280;61070;50.794;7.054;2023-02-21T09:57:43;101238.59;;;9.85;90.30
72925;BME280;61070;50.794;7.054;2023-02-21T10:00:17;101236.84;;;9.87;89.75
72925;BME280;61070;50.794;7.054;2023-02-21T10:02:53;101244.78;;;9.86;89.86
72925;BME280;61070;50.794;7.054;2023-02-21T10:05:26;101243.88;;;9.90;89.82
72925;BME280;61070;50.794;7.054;2023-02-21T10:08:29;101236.81;;;9.95;89.56
72925;BME280;61070;50.794;7.054;2023-02-21T10:14:32;101242.09;;;10.07;88.75
72925;BME280;61070;50.794;7.054;2023-02-21T10:17:12;101235.06;;;9.74;89.89
72925;BME280;61070;50.794;7.054;2023-02-21T10:19:43;101235.03;;;10.08;89.87
72925;BME280;61070;50.794;7.054;2023-02-21T10:22:14;101229.78;;;9.79;91.85
72925;BME280;61070;50.794;7.054;2023-02-21T10:24:43;101235.06;;;9.76;91.83
72925;BME280;61070;50.794;7.054;2023-02-21T10:27:18;101233.28;;;9.90;91.62
72925;BME280;61070;50.794;7.054;2023-02-21T10:29:55;101232.41;;;10.03;90.90
72925;BME280;61070;50.794;7.054;2023-02-21T10:32:24;101229.75;;;10.12;90.21
72925;BME280;61070;50.794;7.054;2023-02-21T10:34:51;101227.97;;;10.27;89.77
72925;BME280;61070;50.794;7.054;2023-02-21T10:37:41;101226.19;;;10.36;89.23
72925;BME280;61070;50.794;7.054;2023-02-21T10:40:27;101226.16;;;10.50;89.39
72925;BME280;61070;50.794;7.054;2023-02-21T10:43:16;101228.75;;;10.67;88.61
72925;BME280;61070;50.794;7.054;2023-02-21T10:45:56;101226.13;;;10.53;88.07
72925;BME280;61070;50.794;7.054;2023-02-21T10:48:26;101233.25;;;10.45;89.64
72925;BME280;61070;50.794;7.054;2023-02-21T10:53:38;101218.97;;;10.79;87.31
72925;BME280;61070;50.794;7.054;2023-02-21T10:58:43;101220.78;;;10.77;87.22
72925;BME280;61070;50.794;7.054;2023-02-21T11:01:14;101217.88;;;11.19;86.35
72925;BME280;61070;50.794;7.054;2023-02-21T11:03:45;101210.66;;;11.41;84.88
72925;BME280;61070;50.794;7.054;2023-02-21T11:08:54;101214.97;;;11.54;84.70
72925;BME280;61070;50.794;7.054;2023-02-21T11:11:58;101200.78;;;11.61;83.13
72925;BME280;61070;50.794;7.054;2023-02-21T11:14:24;101198.44;;;11.21;83.74
72925;BME280;61070;50.794;7.054;2023-02-21T11:19:50;101196.78;;;10.97;85.72
72925;BME280;61070;50.794;7.054;2023-02-21T11:22:20;101187.97;;;10.95;86.68
72925;BME280;61070;50.794;7.054;2023-02-21T11:24:48;101186.34;;;10.68;87.35
72925;BME280;61070;50.794;7.054;2023-02-21T11:27:14;101179.22;;;10.81;88.93
72925;BME280;61070;50.794;7.054;2023-02-21T11:29:43;101178.31;;;10.84;88.93
72925;BME280;61070;50.794;7.054;2023-02-21T11:32:22;101180.06;;;10.89;87.94
72925;BME280;61070;50.794;7.054;2023-02-21T11:34:49;101167.81;;;10.64;90.23
72925;BME280;61070;50.794;7.054;2023-02-21T11:37:15;101172.31;;;10.40;91.73
72925;BME280;61070;50.794;7.054;2023-02-21T11:39:41;101169.72;;;10.27;91.36
72925;BME280;61070;50.794;7.054;2023-02-21T11:42:29;101166.09;;;10.55;89.91
72925;BME280;61070;50.794;7.054;2023-02-21T11:45:18;101155.56;;;10.43;91.33
72925;BME280;61070;50.794;7.054;2023-02-21T11:48:01;101154.63;;;10.50;91.23
72925;BME280;61070;50.794;7.054;2023-02-21T11:50:33;101146.66;;;10.58;91.41
72925;BME280;61070;50.794;7.054;2023-02-21T11:55:31;101144.72;;;10.92;88.27
72925;BME280;61070;50.794;7.054;2023-02-21T11:58:22;101142.09;;;10.83;88.52
72925;BME280;61070;50.794;7.054;2023-02-21T12:00:55;101129.66;;;10.94;89.34
72925;BME280;61070;50.794;7.054;2023-02-21T12:03:49;101127.13;;;10.80;88.52
72925;BME280;61070;50.794;7.054;2023-02-21T12:09:27;101120.81;;;11.01;89.19
72925;BME280;61070;50.794;7.054;2023-02-21T12:12:05;101122.47;;;11.14;88.53
72925;BME280;61070;50.794;7.054;2023-02-21T12:20:41;101098.69;;;11.02;88.21
72925;BME280;61070;50.794;7.054;2023-02-21T12:23:32;101096.84;;;11.13;88.38
72925;BME280;61070;50.794;7.054;2023-02-21T12:26:06;101095.09;;;11.12;88.74
72925;BME280;61070;50.794;7.054;2023-02-21T12:31:32;101100.31;;;11.23;89.46
72925;BME280;61070;50.794;7.054;2023-02-21T12:39:41;101078.97;;;11.36;88.76
72925;BME280;61070;50.794;7.054;2023-02-21T12:42:23;101072.09;;;11.13;89.04
72925;BME280;61070;50.794;7.054;2023-02-21T12:47:30;101063.78;;;11.51;87.80
72925;BME280;61070;50.794;7.054;2023-02-21T12:50:01;101062.81;;;11.61;87.38
72925;BME280;61070;50.794;7.054;2023-02-21T12:52:39;101060.28;;;11.49;87.56
72925;BME280;61070;50.794;7.054;2023-02-21T12:55:17;101061.97;;;11.54;86.40
72925;BME280;61070;50.794;7.054;2023-02-21T12:57:55;101054.16;;;11.41;86.34
72925;BME280;61070;50.794;7.054;2023-02-21T13:06:20;101038.81;;;11.72;85.84
72925;BME280;61070;50.794;7.054;2023-02-21T13:09:02;101032.66;;;11.68;86.31
72925;BME280;61070;50.794;7.054;2023-02-21T13:11:56;101037.94;;;11.71;85.79
72925;BME280;61070;50.794;7.054;2023-02-21T13:14:26;101029.88;;;11.77;85.40
72925;BME280;61070;50.794;7.054;2023-02-21T13:16:52;101021.91;;;11.82;85.56
72925;BME280;61070;50.794;7.054;2023-02-21T13:19:18;101018.25;;;11.92;84.84
72925;BME280;61070;50.794;7.054;2023-02-21T13:30:00;101003.69;;;12.22;83.49
72925;BME280;61070;50.794;7.054;2023-02-21T13:32:27;101005.31;;;12.35;84.17
72925;BME280;61070;50.794;7.054;2023-02-21T13:34:56;100996.72;;;12.15;84.29
72925;BME280;61070;50.794;7.054;2023-02-21T13:37:29;100998.25;;;12.31;83.63
72925;BME280;61070;50.794;7.054;2023-02-21T13:39:58;100993.34;;;12.04;84.16
72925;BME280;61070;50.794;7.054;2023-02-21T13:42:33;100995.25;;;11.92;84.84
72925;BME280;61070;50.794;7.054;2023-02-21T13:45:18;100986.25;;;12.03;84.49
72925;BME280;61070;50.794;7.054;2023-02-21T13:58:34;100979.34;;;12.52;83.03
72925;BME280;61070;50.794;7.054;2023-02-21T14:03:38;100975.00;;;13.01;81.67
72925;BME280;61070;50.794;7.054;2023-02-21T14:13:49;100967.53;;;12.72;82.72
72925;BME280;61070;50.794;7.054;2023-02-21T14:16:45;100955.34;;;12.59;83.36
72925;BME280;61070;50.794;7.054;2023-02-21T14:19:20;100950.25;;;12.43;82.32
72925;BME280;61070;50.794;7.054;2023-02-21T14:21:48;100949.16;;;12.57;82.82
72925;BME280;61070;50.794;7.054;2023-02-21T14:24:23;100950.03;;;12.59;83.00
72925;BME280;61070;50.794;7.054;2023-02-21T14:26:50;100942.75;;;12.70;81.54
72925;BME280;61070;50.794;7.054;2023-02-21T14:32:15;100945.22;;;12.79;81.50
72925;BME280;61070;50.794;7.054;2023-02-21T14:37:43;100943.47;;;12.78;81.19
72925;BME280;61070;50.794;7.054;2023-02-21T14:54:35;100938.13;;;12.79;80.61
72925;BME280;61070;50.794;7.054;2023-02-21T15:00:13;100934.66;;;12.76;80.95
72925;BME280;61070;50.794;7.054;2023-02-21T15:02:49;100931.47;;;13.06;80.24
72925;BME280;61070;50.794;7.054;2023-02-21T15:05:26;100929.09;;;12.91;81.32
72925;BME280;61070;50.794;7.054;2023-02-21T15:10:25;100927.56;;;12.76;81.90
72925;BME280;61070;50.794;7.054;2023-02-21T15:12:54;100929.31;;;12.77;81.77
72925;BME280;61070;50.794;7.054;2023-02-21T15:15:23;100928.69;;;12.63;81.94